Time,TemperatureF,DewpointF,PressureIn,WindDirection,WindDirectionDegrees,WindSpeedMPH,WindSpeedGustMPH,Humidity,HourlyPrecipIn,Conditions,Clouds,dailyrainin,SoftwareType,DateUTC
2013-01-14 00:01:00,7.2,-19.8,29.18,WNW,295,0.0,0.0,27,0.00,,,0.00,VWS V14.01,2013-01-14 06:01:00,
2013-01-14 00:06:00,7.2,-19.8,29.18,WNW,295,0.0,0.0,27,0.00,,,0.00,VWS V14.01,2013-01-14 06:06:00,
2013-01-14 00:11:00,7.0,-19.9,29.18,WNW,295,0.0,0.0,27,0.00,,,0.00,VWS V14.01,2013-01-14 06:11:00,
2013-01-14 00:16:00,7.0,-19.9,29.18,WNW,295,0.0,0.0,27,0.00,,,0.00,VWS V14.01,2013-01-14 06:16:00,
2013-01-14 00:21:00,7.0,-19.9,29.18,WNW,295,0.0,0.0,27,0.00,,,0.00,VWS V14.01,2013-01-14 06:21:00,
2013-01-14 00:26:00,7.0,-19.9,29.18,WNW,295,0.0,0.0,27,0.00,,,0.00,VWS V14.01,2013-01-14 06:26:00,
2013-01-14 00:31:00,7.3,-19.6,29.18,WNW,295,0.0,0.0,27,0.00,,,0.00,VWS V14.01,2013-01-14 06:31:00,
2013-01-14 00:36:00,7.3,-19.6,29.18,WNW,295,0.0,0.0,27,0.00,,,0.00,VWS V14.01,2013-01-14 06:36:00,
2013-01-14 00:41:00,6.8,-20.1,29.18,WNW,295,0.0,0.0,27,0.00,,,0.00,VWS V14.01,2013-01-14 06:41:00,
2013-01-14 00:46:00,6.4,-20.4,29.18,WNW,295,0.0,0.0,27,0.00,,,0.00,VWS V14.01,2013-01-14 06:46:00,
2013-01-14 00:51:00,7.0,-19.9,29.18,WNW,295,0.0,0.0,27,0.00,,,0.00,VWS V14.01,2013-01-14 06:51:00,
2013-01-14 00:56:00,7.7,-19.3,29.18,WNW,294,3.6,3.6,27,0.00,,,0.00,VWS V14.01,2013-01-14 06:56:00,
2013-01-14 01:01:00,7.9,-19.1,29.18,WNW,291,5.4,5.4,27,0.00,,,0.00,VWS V14.01,2013-01-14 07:01:00,
2013-01-14 01:06:00,7.9,-19.1,29.18,WNW,284,3.6,3.6,27,0.00,,,0.00,VWS V14.01,2013-01-14 07:06:00,
2013-01-14 01:11:00,7.9,-19.1,29.21,WNW,283,4.0,4.0,27,0.00,,,0.00,VWS V14.01,2013-01-14 07:11:00,
2013-01-14 01:16:00,8.6,-18.5,29.21,West,280,0.0,0.0,27,0.00,,,0.00,VWS V14.01,2013-01-14 07:16:00,
2013-01-14 01:21:00,7.9,-19.1,29.21,West,279,3.1,3.1,27,0.00,,,0.00,VWS V14.01,2013-01-14 07:21:00,
2013-01-14 01:26:00,8.1,-19.0,29.21,West,277,0.0,2.2,27,0.00,,,0.00,VWS V14.01,2013-01-14 07:26:00,
2013-01-14 01:31:00,8.1,-19.0,29.21,West,277,0.0,0.0,27,0.00,,,0.00,VWS V14.01,2013-01-14 07:31:00,
2013-01-14 01:36:00,8.1,-19.0,29.21,West,275,0.0,2.2,27,0.00,,,0.00,VWS V14.01,2013-01-14 07:36:00,
2013-01-14 01:41:00,7.7,-19.3,29.21,West,275,3.1,3.1,27,0.00,,,0.00,VWS V14.01,2013-01-14 07:41:00,
2013-01-14 01:46:00,7.5,-19.5,29.21,West,275,0.0,0.0,27,0.00,,,0.00,VWS V14.01,2013-01-14 07:46:00,
2013-01-14 01:51:00,7.3,-19.6,29.21,West,275,0.0,0.0,27,0.00,,,0.00,VWS V14.01,2013-01-14 07:51:00,
2013-01-14 01:57:00,7.2,-19.8,29.21,West,275,0.0,0.0,27,0.00,,,0.00,VWS V14.01,2013-01-14 07:57:00,
2013-01-14 02:02:00,7.0,-19.9,29.21,West,275,0.0,0.0,27,0.00,,,0.00,VWS V14.01,2013-01-14 08:02:00,
2013-01-14 02:07:00,6.8,-20.1,29.21,West,275,0.0,0.0,27,0.00,,,0.00,VWS V14.01,2013-01-14 08:07:00,
2013-01-14 02:12:00,7.0,-19.9,29.21,West,275,3.6,3.6,27,0.00,,,0.00,VWS V14.01,2013-01-14 08:12:00,
2013-01-14 02:16:00,7.2,-19.8,29.21,West,275,0.0,0.0,27,0.00,,,0.00,VWS V14.01,2013-01-14 08:16:00,
2013-01-14 02:21:00,7.2,-19.8,29.21,West,273,2.7,2.7,27,0.00,,,0.00,VWS V14.01,2013-01-14 08:21:00,
2013-01-14 02:27:00,7.7,-19.3,29.21,West,270,3.1,3.1,27,0.00,,,0.00,VWS V14.01,2013-01-14 08:27:00,
2013-01-14 02:31:00,8.2,-18.8,29.21,West,270,2.2,3.1,27,0.00,,,0.00,VWS V14.01,2013-01-14 08:31:00,
2013-01-14 02:36:00,8.2,-18.8,29.21,West,270,3.1,3.1,27,0.00,,,0.00,VWS V14.01,2013-01-14 08:36:00,
2013-01-14 02:41:00,8.8,-18.4,29.23,West,269,0.0,0.0,27,0.00,,,0.00,VWS V14.01,2013-01-14 08:41:00,
2013-01-14 02:46:00,8.4,-18.7,29.23,West,270,0.0,0.0,27,0.00,,,0.00,VWS V14.01,2013-01-14 08:46:00,
2013-01-14 02:51:00,8.1,-19.0,29.23,West,270,0.0,0.0,27,0.00,,,0.00,VWS V14.01,2013-01-14 08:51:00,
2013-01-14 02:56:00,7.3,-19.6,29.23,West,270,0.0,0.0,27,0.00,,,0.00,VWS V14.01,2013-01-14 08:56:00,
2013-01-14 03:01:00,7.3,-19.6,29.23,West,270,0.0,0.0,27,0.00,,,0.00,VWS V14.01,2013-01-14 09:01:00,
2013-01-14 03:06:00,7.0,-19.9,29.23,West,269,0.0,0.0,27,0.00,,,0.00,VWS V14.01,2013-01-14 09:06:00,
2013-01-14 03:11:00,7.0,-19.9,29.23,West,270,0.0,0.0,27,0.00,,,0.00,VWS V14.01,2013-01-14 09:11:00,
2013-01-14 03:16:00,7.2,-19.8,29.23,West,270,0.0,0.0,27,0.00,,,0.00,VWS V14.01,2013-01-14 09:16:00,
2013-01-14 03:21:00,7.0,-19.9,29.23,West,269,0.0,0.0,27,0.00,,,0.00,VWS V14.01,2013-01-14 09:21:00,
2013-01-14 03:26:00,6.8,-20.1,29.23,West,270,0.0,0.0,27,0.00,,,0.00,VWS V14.01,2013-01-14 09:26:00,
2013-01-14 03:31:00,6.4,-20.4,29.23,West,270,0.0,0.0,27,0.00,,,0.00,VWS V14.01,2013-01-14 09:31:00,
2013-01-14 03:36:00,6.4,-20.4,29.23,West,269,0.0,0.0,27,0.00,,,0.00,VWS V14.01,2013-01-14 09:36:00,
2013-01-14 03:41:00,6.4,-20.4,29.23,West,269,0.0,0.0,27,0.00,,,0.00,VWS V14.01,2013-01-14 09:41:00,
2013-01-14 03:46:00,6.4,-20.4,29.23,West,270,0.0,0.0,27,0.00,,,0.00,VWS V14.01,2013-01-14 09:46:00,
2013-01-14 03:51:00,6.3,-20.6,29.23,West,270,0.0,0.0,27,0.00,,,0.00,VWS V14.01,2013-01-14 09:51:00,
2013-01-14 04:10:00,6.8,-20.1,29.23,West,270,0.0,0.0,27,0.00,,,0.00,VWS V14.01,2013-01-14 10:10:00,
2013-01-14 04:15:00,7.5,-19.5,29.23,West,270,0.0,0.0,27,0.00,,,0.00,VWS V14.01,2013-01-14 10:15:00,
2013-01-14 04:20:00,7.7,-19.3,29.23,West,270,0.0,0.0,27,0.00,,,0.00,VWS V14.01,2013-01-14 10:20:00,
2013-01-14 04:25:00,7.2,-19.8,29.23,West,270,0.0,0.0,27,0.00,,,0.00,VWS V14.01,2013-01-14 10:25:00,
2013-01-14 04:30:00,6.8,-20.1,29.23,West,270,0.0,0.0,27,0.00,,,0.00,VWS V14.01,2013-01-14 10:30:00,
2013-01-14 04:35:00,6.8,-20.1,29.23,West,270,0.0,0.0,27,0.00,,,0.00,VWS V14.01,2013-01-14 10:35:00,
2013-01-14 04:40:00,6.4,-20.4,29.23,West,270,0.0,0.0,27,0.00,,,0.00,VWS V14.01,2013-01-14 10:40:00,
2013-01-14 04:45:00,6.3,-20.6,29.23,West,270,0.0,0.0,27,0.00,,,0.00,VWS V14.01,2013-01-14 10:45:00,
2013-01-14 04:50:00,5.9,-20.9,29.23,West,270,0.0,0.0,27,0.00,,,0.00,VWS V14.01,2013-01-14 10:50:00,
2013-01-14 04:55:00,5.7,-21.0,29.23,West,270,0.0,0.0,27,0.00,,,0.00,VWS V14.01,2013-01-14 10:55:00,
2013-01-14 05:00:00,5.7,-21.0,29.23,West,269,0.0,0.0,27,0.00,,,0.00,VWS V14.01,2013-01-14 11:00:00,
2013-01-14 05:05:00,5.5,-21.2,29.23,West,270,0.0,0.0,27,0.00,,,0.00,VWS V14.01,2013-01-14 11:05:00,
2013-01-14 05:10:00,5.5,-21.2,29.23,West,270,0.0,0.0,27,0.00,,,0.00,VWS V14.01,2013-01-14 11:10:00,
2013-01-14 05:15:00,5.4,-21.4,29.23,West,270,0.0,0.0,27,0.00,,,0.00,VWS V14.01,2013-01-14 11:15:00,
2013-01-14 05:20:00,5.5,-21.2,29.23,West,270,0.0,0.0,27,0.00,,,0.00,VWS V14.01,2013-01-14 11:20:00,
2013-01-14 05:25:00,5.5,-21.2,29.23,West,270,0.0,0.0,27,0.00,,,0.00,VWS V14.01,2013-01-14 11:25:00,
2013-01-14 05:30:00,5.5,-21.2,29.23,West,270,0.0,0.0,27,0.00,,,0.00,VWS V14.01,2013-01-14 11:30:00,
2013-01-14 05:35:00,5.4,-21.4,29.23,West,269,0.0,0.0,27,0.00,,,0.00,VWS V14.01,2013-01-14 11:35:00,
2013-01-14 05:40:00,5.2,-21.5,29.23,West,270,0.0,0.0,27,0.00,,,0.00,VWS V14.01,2013-01-14 11:40:00,
2013-01-14 05:45:00,5.4,-21.4,29.23,West,270,0.0,0.0,27,0.00,,,0.00,VWS V14.01,2013-01-14 11:45:00,
2013-01-14 05:50:00,5.5,-21.2,29.23,West,269,0.0,0.0,27,0.00,,,0.00,VWS V14.01,2013-01-14 11:50:00,
2013-01-14 05:55:00,5.4,-21.4,29.23,West,270,0.0,0.0,27,0.00,,,0.00,VWS V14.01,2013-01-14 11:55:00,
2013-01-14 06:00:00,5.2,-21.5,29.23,West,270,0.0,0.0,27,0.00,,,0.00,VWS V14.01,2013-01-14 12:00:00,
2013-01-14 06:05:00,5.0,-21.7,29.23,West,270,0.0,0.0,27,0.00,,,0.00,VWS V14.01,2013-01-14 12:05:00,
2013-01-14 06:10:00,4.8,-21.8,29.23,West,269,0.0,0.0,27,0.00,,,0.00,VWS V14.01,2013-01-14 12:10:00,
2013-01-14 06:15:00,4.6,-22.0,29.23,West,270,0.0,0.0,27,0.00,,,0.00,VWS V14.01,2013-01-14 12:15:00,
2013-01-14 06:20:00,4.6,-22.0,29.23,West,270,0.0,0.0,27,0.00,,,0.00,VWS V14.01,2013-01-14 12:20:00,
2013-01-14 06:25:00,5.0,-21.7,29.23,West,270,0.0,0.0,27,0.00,,,0.00,VWS V14.01,2013-01-14 12:25:00,
2013-01-14 06:30:00,5.2,-21.5,29.23,West,270,0.0,0.0,27,0.00,,,0.00,VWS V14.01,2013-01-14 12:30:00,
2013-01-14 06:35:00,5.2,-21.5,29.23,West,270,0.0,0.0,27,0.00,,,0.00,VWS V14.01,2013-01-14 12:35:00,
2013-01-14 06:40:00,5.2,-21.5,29.26,West,269,0.0,0.0,27,0.00,,,0.00,VWS V14.01,2013-01-14 12:40:00,
2013-01-14 06:45:00,4.8,-21.8,29.26,West,269,0.0,0.0,27,0.00,,,0.00,VWS V14.01,2013-01-14 12:45:00,
2013-01-14 06:50:00,5.0,-21.7,29.26,West,270,0.0,0.0,27,0.00,,,0.00,VWS V14.01,2013-01-14 12:50:00,
2013-01-14 06:55:00,4.6,-22.0,29.26,West,270,0.0,0.0,27,0.00,,,0.00,VWS V14.01,2013-01-14 12:55:00,
2013-01-14 07:00:00,4.5,-22.1,29.26,West,269,0.0,0.0,27,0.00,,,0.00,VWS V14.01,2013-01-14 13:00:00,
2013-01-14 07:05:00,4.5,-22.1,29.26,West,270,0.0,0.0,27,0.00,,,0.00,VWS V14.01,2013-01-14 13:05:00,
2013-01-14 07:10:00,4.1,-22.5,29.26,West,270,0.0,0.0,27,0.00,,,0.00,VWS V14.01,2013-01-14 13:10:00,
2013-01-14 07:15:00,4.1,-22.5,29.26,West,269,0.0,0.0,27,0.00,,,0.00,VWS V14.01,2013-01-14 13:15:00,
2013-01-14 07:20:00,4.1,-22.5,29.26,West,269,0.0,0.0,27,0.00,,,0.00,VWS V14.01,2013-01-14 13:20:00,
2013-01-14 07:25:00,5.0,-21.7,29.26,West,270,0.0,0.0,27,0.00,,,0.00,VWS V14.01,2013-01-14 13:25:00,
2013-01-14 07:30:00,4.8,-21.8,29.26,West,269,0.0,0.0,27,0.00,,,0.00,VWS V14.01,2013-01-14 13:30:00,
2013-01-14 07:35:00,5.2,-21.5,29.26,West,270,0.0,0.0,27,0.00,,,0.00,VWS V14.01,2013-01-14 13:35:00,
2013-01-14 07:40:00,5.2,-21.5,29.26,West,269,0.0,0.0,27,0.00,,,0.00,VWS V14.01,2013-01-14 13:40:00,
2013-01-14 07:45:00,5.2,-21.5,29.26,West,270,0.0,2.2,27,0.00,,,0.00,VWS V14.01,2013-01-14 13:45:00,
2013-01-14 07:50:00,5.0,-21.7,29.26,West,270,0.0,0.0,27,0.00,,,0.00,VWS V14.01,2013-01-14 13:50:00,
2013-01-14 07:55:00,5.5,-21.2,29.26,West,269,0.0,0.0,27,0.00,,,0.00,VWS V14.01,2013-01-14 13:55:00,
2013-01-14 08:00:00,6.4,-20.4,29.26,West,269,0.0,0.0,27,0.00,,,0.00,VWS V14.01,2013-01-14 14:00:00,
2013-01-14 08:05:00,6.8,-20.1,29.26,West,270,0.0,0.0,27,0.00,,,0.00,VWS V14.01,2013-01-14 14:05:00,
2013-01-14 08:10:00,7.2,-19.8,29.26,West,268,4.9,4.9,27,0.00,,,0.00,VWS V14.01,2013-01-14 14:10:00,
2013-01-14 08:15:00,7.5,-19.5,29.26,West,267,3.1,3.1,27,0.00,,,0.00,VWS V14.01,2013-01-14 14:15:00,
2013-01-14 08:20:00,7.9,-19.1,29.26,West,266,0.0,0.0,27,0.00,,,0.00,VWS V14.01,2013-01-14 14:20:00,
2013-01-14 08:25:00,8.1,-19.0,29.26,West,266,0.0,0.0,27,0.00,,,0.00,VWS V14.01,2013-01-14 14:25:00,
2013-01-14 08:30:00,8.2,-18.8,29.29,West,266,0.0,0.0,27,0.00,,,0.00,VWS V14.01,2013-01-14 14:30:00,
2013-01-14 08:35:00,8.2,-18.8,29.29,West,266,3.6,3.6,27,0.00,,,0.00,VWS V14.01,2013-01-14 14:35:00,
2013-01-14 08:40:00,8.2,-18.8,29.29,West,266,0.0,3.6,27,0.00,,,0.00,VWS V14.01,2013-01-14 14:40:00,
2013-01-14 08:45:00,9.7,-17.6,29.29,West,267,5.8,5.8,27,0.00,,,0.00,VWS V14.01,2013-01-14 14:45:00,
2013-01-14 08:50:00,10.4,-17.0,29.29,West,266,2.7,2.7,27,0.00,,,0.00,VWS V14.01,2013-01-14 14:50:00,
2013-01-14 08:55:00,10.8,-16.6,29.29,WSW,256,3.1,5.4,27,0.00,,,0.00,VWS V14.01,2013-01-14 14:55:00,
2013-01-14 09:00:00,11.7,-15.9,29.29,WSW,247,5.8,5.8,27,0.00,,,0.00,VWS V14.01,2013-01-14 15:00:00,
2013-01-14 09:05:00,12.2,-15.4,29.29,West,262,5.8,5.8,27,0.00,,,0.00,VWS V14.01,2013-01-14 15:05:00,
2013-01-14 09:10:00,12.2,-15.4,29.29,WSW,257,6.3,6.3,27,0.00,,,0.00,VWS V14.01,2013-01-14 15:10:00,
2013-01-14 09:15:00,12.2,-15.4,29.29,West,259,2.7,2.7,27,0.00,,,0.00,VWS V14.01,2013-01-14 15:15:00,
2013-01-14 09:20:00,13.3,-14.4,29.29,West,259,0.0,0.0,27,0.00,,,0.00,VWS V14.01,2013-01-14 15:20:00,
2013-01-14 09:25:00,13.3,-14.4,29.29,West,259,4.0,4.0,27,0.00,,,0.00,VWS V14.01,2013-01-14 15:25:00,
2013-01-14 09:30:00,14.5,-6.4,29.29,WSW,253,4.0,6.3,38,0.00,,,0.00,VWS V14.01,2013-01-14 15:30:00,
2013-01-14 09:35:00,15.3,-5.8,29.29,WSW,253,4.0,4.0,38,0.00,,,0.00,VWS V14.01,2013-01-14 15:35:00,
2013-01-14 09:40:00,15.3,-5.8,29.29,WSW,240,2.7,2.7,38,0.00,,,0.00,VWS V14.01,2013-01-14 15:40:00,
2013-01-14 09:45:00,16.0,-6.2,29.29,WSW,242,4.0,4.0,36,0.00,,,0.00,VWS V14.01,2013-01-14 15:45:00,
2013-01-14 09:50:00,16.2,-6.7,29.29,WSW,242,0.0,0.0,35,0.00,,,0.00,VWS V14.01,2013-01-14 15:50:00,
2013-01-14 09:55:00,16.7,-6.2,29.29,WSW,242,0.0,0.0,35,0.00,,,0.00,VWS V14.01,2013-01-14 15:55:00,
2013-01-14 10:00:00,17.4,-5.5,29.29,WSW,241,0.0,0.0,35,0.00,,,0.00,VWS V14.01,2013-01-14 16:00:00,
2013-01-14 10:05:00,18.0,-5.7,29.29,WSW,247,3.6,3.6,34,0.00,,,0.00,VWS V14.01,2013-01-14 16:05:00,
2013-01-14 10:10:00,18.3,-5.3,29.29,WSW,256,4.0,4.0,34,0.00,,,0.00,VWS V14.01,2013-01-14 16:10:00,
2013-01-14 10:15:00,18.7,-5.0,29.29,West,259,0.0,0.0,34,0.00,,,0.00,VWS V14.01,2013-01-14 16:15:00,
2013-01-14 10:20:00,18.7,-5.0,29.29,WSW,249,0.0,0.0,34,0.00,,,0.00,VWS V14.01,2013-01-14 16:20:00,
2013-01-14 10:25:00,20.3,-4.2,29.29,WSW,243,2.7,4.9,33,0.00,,,0.00,VWS V14.01,2013-01-14 16:25:00,
2013-01-14 10:30:00,20.7,-3.9,29.29,WSW,243,2.7,2.7,33,0.00,,,0.00,VWS V14.01,2013-01-14 16:30:00,
2013-01-14 10:35:00,21.4,-3.2,29.29,SW,227,2.7,2.7,33,0.00,,,0.00,VWS V14.01,2013-01-14 16:35:00,
2013-01-14 10:40:00,21.9,-3.4,29.29,SW,226,2.2,2.2,32,0.00,,,0.00,VWS V14.01,2013-01-14 16:40:00,
2013-01-14 10:45:00,21.9,-3.4,29.29,SW,226,2.2,2.2,32,0.00,,,0.00,VWS V14.01,2013-01-14 16:45:00,
2013-01-14 10:50:00,21.9,-3.4,29.29,SSW,207,5.4,5.4,32,0.00,,,0.00,VWS V14.01,2013-01-14 16:50:00,
2013-01-14 10:55:00,22.8,-2.6,29.29,SSW,207,3.6,3.6,32,0.00,,,0.00,VWS V14.01,2013-01-14 16:55:00,
2013-01-14 11:00:00,23.9,-3.7,29.29,WSW,240,4.0,5.8,29,0.00,,,0.00,VWS V14.01,2013-01-14 17:00:00,
2013-01-14 11:05:00,24.1,-5.1,29.29,SW,214,3.6,3.6,27,0.00,,,0.00,VWS V14.01,2013-01-14 17:05:00,
2013-01-14 11:10:00,24.4,-4.7,29.29,SW,222,3.1,3.1,27,0.00,,,0.00,VWS V14.01,2013-01-14 17:10:00,
2013-01-14 11:15:00,24.4,-4.7,29.29,SW,218,8.7,8.7,27,0.00,,,0.00,VWS V14.01,2013-01-14 17:15:00,
2013-01-14 11:20:00,25.3,-4.7,29.29,SSW,203,5.8,5.8,26,0.00,,,0.00,VWS V14.01,2013-01-14 17:20:00,
2013-01-14 11:25:00,25.3,-4.7,29.26,SW,232,8.1,8.1,26,0.00,,,0.00,VWS V14.01,2013-01-14 17:25:00,
2013-01-14 11:30:00,26.1,-5.8,29.26,SSW,198,6.3,6.3,24,0.00,,,0.00,VWS V14.01,2013-01-14 17:30:00,
2013-01-14 11:35:00,27.0,-5.9,29.26,SW,232,8.1,8.1,23,0.00,,,0.00,VWS V14.01,2013-01-14 17:35:00,
2013-01-14 11:40:00,27.0,-5.9,29.26,SSW,206,3.1,5.8,23,0.00,,,0.00,VWS V14.01,2013-01-14 17:40:00,
2013-01-14 11:45:00,26.8,-6.0,29.26,SSW,202,5.8,5.8,23,0.00,,,0.00,VWS V14.01,2013-01-14 17:45:00,
2013-01-14 11:50:00,27.5,-5.4,29.26,SSW,203,7.2,7.2,23,0.00,,,0.00,VWS V14.01,2013-01-14 17:50:00,
2013-01-14 11:55:00,27.3,-5.6,29.26,WSW,241,5.8,5.8,23,0.00,,,0.00,VWS V14.01,2013-01-14 17:55:00,
2013-01-14 12:00:00,27.0,-5.9,29.23,SW,232,5.8,5.8,23,0.00,,,0.00,VWS V14.01,2013-01-14 18:00:00,
2013-01-14 12:05:00,27.0,-5.9,29.23,WSW,244,5.8,6.7,23,0.00,,,0.00,VWS V14.01,2013-01-14 18:05:00,
2013-01-14 12:10:00,28.2,-4.8,29.23,SW,223,8.7,8.7,23,0.00,,,0.00,VWS V14.01,2013-01-14 18:10:00,
2013-01-14 12:15:00,28.6,-4.5,29.23,SW,224,3.1,6.3,23,0.00,,,0.00,VWS V14.01,2013-01-14 18:15:00,
2013-01-14 12:20:00,28.9,-4.2,29.23,South,173,7.2,7.2,23,0.00,,,0.00,VWS V14.01,2013-01-14 18:20:00,
2013-01-14 12:25:00,29.7,-3.6,29.23,SSW,194,10.1,10.1,23,0.00,,,0.00,VWS V14.01,2013-01-14 18:25:00,
2013-01-14 12:30:00,29.8,-3.4,29.23,SW,223,7.2,7.2,23,0.00,,,0.00,VWS V14.01,2013-01-14 18:30:00,
2013-01-14 12:35:00,29.7,-3.6,29.23,SW,224,7.6,7.6,23,0.00,,,0.00,VWS V14.01,2013-01-14 18:35:00,
2013-01-14 12:39:00,29.5,-3.7,29.23,SW,223,6.3,6.3,23,0.00,,,0.00,VWS V14.01,2013-01-14 18:39:00,
2013-01-14 12:44:00,30.2,-3.1,29.23,SSW,192,4.9,5.4,23,0.00,,,0.00,VWS V14.01,2013-01-14 18:44:00,
2013-01-14 12:49:00,30.9,-2.5,29.23,SW,221,8.1,8.1,23,0.00,,,0.00,VWS V14.01,2013-01-14 18:49:00,
2013-01-14 12:54:00,30.9,-2.5,29.23,SW,227,11.0,11.0,23,0.00,,,0.00,VWS V14.01,2013-01-14 18:54:00,
2013-01-14 12:59:00,29.8,-3.4,29.23,WSW,238,3.6,3.6,23,0.00,,,0.00,VWS V14.01,2013-01-14 18:59:00,
2013-01-14 13:04:00,29.8,-3.4,29.23,SW,229,3.6,3.6,23,0.00,,,0.00,VWS V14.01,2013-01-14 19:04:00,
2013-01-14 13:09:00,30.9,-2.5,29.21,SSW,193,8.3,8.3,23,0.00,,,0.00,VWS V14.01,2013-01-14 19:09:00,
2013-01-14 13:14:00,30.9,-2.5,29.21,South,176,7.6,7.6,23,0.00,,,0.00,VWS V14.01,2013-01-14 19:14:00,
2013-01-14 13:19:00,30.9,-2.5,29.21,SSW,193,6.3,6.3,23,0.00,,,0.00,VWS V14.01,2013-01-14 19:19:00,
2013-01-14 13:25:00,31.6,-1.9,29.21,SW,215,6.3,6.3,23,0.00,,,0.00,VWS V14.01,2013-01-14 19:25:00,
2013-01-14 13:30:00,31.6,-1.9,29.21,South,185,5.8,5.8,23,0.00,,,0.00,VWS V14.01,2013-01-14 19:30:00,
2013-01-14 13:35:00,31.3,-2.2,29.21,SSW,205,5.8,5.8,23,0.00,,,0.00,VWS V14.01,2013-01-14 19:35:00,
2013-01-14 13:40:00,31.8,-1.8,29.21,SSW,196,5.4,7.6,23,0.00,,,0.00,VWS V14.01,2013-01-14 19:40:00,
2013-01-14 13:45:00,32.5,-1.1,29.21,SW,225,6.7,6.7,23,0.00,,,0.00,VWS V14.01,2013-01-14 19:45:00,
2013-01-14 13:50:00,32.9,-0.8,29.21,SSW,207,4.0,4.0,23,0.00,,,0.00,VWS V14.01,2013-01-14 19:50:00,
2013-01-14 13:55:00,32.9,-0.8,29.21,SW,217,3.1,8.7,23,0.00,,,0.00,VWS V14.01,2013-01-14 19:55:00,
2013-01-14 14:00:00,33.6,-0.2,29.21,South,190,8.3,8.3,23,0.00,,,0.00,VWS V14.01,2013-01-14 20:00:00,
2013-01-14 14:05:00,33.8,-1.0,29.21,South,187,10.1,10.1,22,0.00,,,0.00,VWS V14.01,2013-01-14 20:05:00,
2013-01-14 14:10:00,33.8,-1.0,29.21,WSW,240,3.1,3.1,22,0.00,,,0.00,VWS V14.01,2013-01-14 20:10:00,
2013-01-14 14:15:00,33.6,-0.2,29.21,SW,234,10.5,10.5,23,0.00,,,0.00,VWS V14.01,2013-01-14 20:15:00,
2013-01-14 14:20:00,33.4,-0.4,29.21,SW,227,2.2,7.6,23,0.00,,,0.00,VWS V14.01,2013-01-14 20:20:00,
2013-01-14 14:25:00,33.3,-0.5,29.21,SSW,211,5.4,5.4,23,0.00,,,0.00,VWS V14.01,2013-01-14 20:25:00,
2013-01-14 14:30:00,33.4,-0.4,29.21,SW,235,5.8,5.8,23,0.00,,,0.00,VWS V14.01,2013-01-14 20:30:00,
2013-01-14 14:35:00,33.8,-1.0,29.21,WSW,250,8.3,8.3,22,0.00,,,0.00,VWS V14.01,2013-01-14 20:35:00,
2013-01-14 14:40:00,33.8,-1.0,29.21,South,191,4.0,5.8,22,0.00,,,0.00,VWS V14.01,2013-01-14 20:40:00,
2013-01-14 14:45:00,33.8,-1.0,29.21,SW,236,6.3,6.3,22,0.00,,,0.00,VWS V14.01,2013-01-14 20:45:00,
2013-01-14 14:50:00,33.6,-0.2,29.21,South,184,10.5,10.5,23,0.00,,,0.00,VWS V14.01,2013-01-14 20:50:00,
2013-01-14 14:55:00,34.0,-0.9,29.21,WSW,253,4.9,8.1,22,0.00,,,0.00,VWS V14.01,2013-01-14 20:55:00,
2013-01-14 15:00:00,34.0,-0.9,29.21,SW,223,3.6,3.6,22,0.00,,,0.00,VWS V14.01,2013-01-14 21:00:00,
2013-01-14 15:05:00,34.0,-0.9,29.21,South,177,6.3,6.3,22,0.00,,,0.00,VWS V14.01,2013-01-14 21:05:00,
2013-01-14 15:10:00,35.4,0.4,29.21,SSW,210,3.1,3.1,22,0.00,,,0.00,VWS V14.01,2013-01-14 21:10:00,
2013-01-14 15:15:00,35.4,0.4,29.21,WSW,239,4.0,4.0,22,0.00,,,0.00,VWS V14.01,2013-01-14 21:15:00,
2013-01-14 15:20:00,35.1,0.1,29.21,WSW,250,7.6,10.1,22,0.00,,,0.00,VWS V14.01,2013-01-14 21:20:00,
2013-01-14 15:25:00,35.1,0.1,29.21,SW,224,4.9,6.3,22,0.00,,,0.00,VWS V14.01,2013-01-14 21:25:00,
2013-01-14 15:30:00,34.2,-0.7,29.21,SSW,201,3.6,5.8,22,0.00,,,0.00,VWS V14.01,2013-01-14 21:30:00,
2013-01-14 15:35:00,34.3,-0.6,29.21,SW,225,4.0,4.0,22,0.00,,,0.00,VWS V14.01,2013-01-14 21:35:00,
2013-01-14 15:40:00,34.5,-0.4,29.21,WSW,241,4.0,5.4,22,0.00,,,0.00,VWS V14.01,2013-01-14 21:40:00,
2013-01-14 15:45:00,34.5,-0.4,29.21,SW,215,6.3,6.3,22,0.00,,,0.00,VWS V14.01,2013-01-14 21:45:00,
2013-01-14 15:50:00,34.5,-0.4,29.21,SW,223,5.4,8.1,22,0.00,,,0.00,VWS V14.01,2013-01-14 21:50:00,
2013-01-14 15:55:00,34.5,-0.4,29.21,WSW,246,6.3,6.3,22,0.00,,,0.00,VWS V14.01,2013-01-14 21:55:00,
2013-01-14 16:00:00,33.4,-0.4,29.21,WSW,256,5.4,5.4,23,0.00,,,0.00,VWS V14.01,2013-01-14 22:00:00,
2013-01-14 16:05:00,33.3,-0.5,29.21,WSW,240,7.6,7.6,23,0.00,,,0.00,VWS V14.01,2013-01-14 22:05:00,
2013-01-14 16:10:00,33.1,-0.7,29.21,SW,235,2.7,2.7,23,0.00,,,0.00,VWS V14.01,2013-01-14 22:10:00,
2013-01-14 16:15:00,33.6,-0.2,29.21,SW,222,3.6,5.8,23,0.00,,,0.00,VWS V14.01,2013-01-14 22:15:00,
2013-01-14 16:20:00,33.6,-0.2,29.21,SW,221,7.6,7.6,23,0.00,,,0.00,VWS V14.01,2013-01-14 22:20:00,
2013-01-14 16:25:00,33.6,-0.2,29.21,SW,216,3.6,4.5,23,0.00,,,0.00,VWS V14.01,2013-01-14 22:25:00,
2013-01-14 16:30:00,32.7,-1.0,29.21,SW,225,0.0,4.0,23,0.00,,,0.00,VWS V14.01,2013-01-14 22:30:00,
2013-01-14 16:35:00,32.4,-1.3,29.21,WSW,247,5.8,5.8,23,0.00,,,0.00,VWS V14.01,2013-01-14 22:35:00,
2013-01-14 16:40:00,32.2,-1.4,29.21,WSW,237,4.9,4.9,23,0.00,,,0.00,VWS V14.01,2013-01-14 22:40:00,
2013-01-14 16:45:00,31.1,-2.4,29.21,SW,216,5.8,5.8,23,0.00,,,0.00,VWS V14.01,2013-01-14 22:45:00,
2013-01-14 16:50:00,31.6,-1.9,29.21,SSW,207,7.2,7.2,23,0.00,,,0.00,VWS V14.01,2013-01-14 22:50:00,
2013-01-14 16:55:00,31.8,-1.8,29.21,SW,223,3.1,3.1,23,0.00,,,0.00,VWS V14.01,2013-01-14 22:55:00,
2013-01-14 17:00:00,31.8,-1.8,29.21,SW,235,4.9,4.9,23,0.00,,,0.00,VWS V14.01,2013-01-14 23:00:00,
2013-01-14 17:05:00,28.8,-4.3,29.21,SW,230,2.2,2.7,23,0.00,,,0.00,VWS V14.01,2013-01-14 23:05:00,
2013-01-14 17:10:00,28.8,-4.3,29.21,WSW,240,4.9,4.9,23,0.00,,,0.00,VWS V14.01,2013-01-14 23:10:00,
2013-01-14 17:15:00,28.8,-4.3,29.21,WSW,240,3.6,3.6,23,0.00,,,0.00,VWS V14.01,2013-01-14 23:15:00,
2013-01-14 17:20:00,25.9,-5.9,29.21,WSW,239,0.0,0.0,24,0.00,,,0.00,VWS V14.01,2013-01-14 23:20:00,
2013-01-14 17:25:00,25.9,-5.9,29.21,WSW,239,0.0,0.0,24,0.00,,,0.00,VWS V14.01,2013-01-14 23:25:00,
2013-01-14 17:30:00,24.6,-7.0,29.21,WSW,239,0.0,0.0,24,0.00,,,0.00,VWS V14.01,2013-01-14 23:30:00,
2013-01-14 17:35:00,24.6,-7.0,29.21,WSW,239,0.0,0.0,24,0.00,,,0.00,VWS V14.01,2013-01-14 23:35:00,
2013-01-14 17:40:00,23.5,-9.7,29.21,WSW,239,0.0,0.0,22,0.00,,,0.00,VWS V14.01,2013-01-14 23:40:00,
2013-01-14 17:45:00,23.0,-10.2,29.21,WSW,239,0.0,0.0,22,0.00,,,0.00,VWS V14.01,2013-01-14 23:45:00,
2013-01-14 17:50:00,23.0,-10.2,29.21,WSW,239,0.0,0.0,22,0.00,,,0.00,VWS V14.01,2013-01-14 23:50:00,
2013-01-14 17:55:00,21.9,-11.1,29.21,WSW,239,0.0,0.0,22,0.00,,,0.00,VWS V14.01,2013-01-14 23:55:00,
2013-01-14 18:00:00,21.6,-11.4,29.21,WSW,239,0.0,0.0,22,0.00,,,0.00,VWS V14.01,2013-01-15 00:00:00,
2013-01-14 18:05:00,21.0,-11.9,29.21,WSW,239,0.0,0.0,22,0.00,,,0.00,VWS V14.01,2013-01-15 00:05:00,
2013-01-14 18:10:00,20.5,-12.3,29.21,WSW,239,0.0,0.0,22,0.00,,,0.00,VWS V14.01,2013-01-15 00:10:00,
2013-01-14 18:15:00,20.3,-12.5,29.21,WSW,239,0.0,0.0,22,0.00,,,0.00,VWS V14.01,2013-01-15 00:15:00,
2013-01-14 18:20:00,19.8,-12.9,29.21,WSW,239,0.0,0.0,22,0.00,,,0.00,VWS V14.01,2013-01-15 00:20:00,
2013-01-14 18:25:00,19.8,-12.9,29.21,WSW,239,0.0,0.0,22,0.00,,,0.00,VWS V14.01,2013-01-15 00:25:00,
2013-01-14 18:30:00,19.2,-12.5,29.21,WSW,239,0.0,0.0,23,0.00,,,0.00,VWS V14.01,2013-01-15 00:30:00,
2013-01-14 18:35:00,18.9,-12.8,29.21,WSW,239,0.0,0.0,23,0.00,,,0.00,VWS V14.01,2013-01-15 00:35:00,
2013-01-14 18:40:00,18.7,-13.0,29.21,WSW,239,0.0,0.0,23,0.00,,,0.00,VWS V14.01,2013-01-15 00:40:00,
2013-01-14 18:45:00,18.1,-11.8,29.21,WSW,239,0.0,0.0,25,0.00,,,0.00,VWS V14.01,2013-01-15 00:45:00,
2013-01-14 18:50:00,17.8,-12.1,29.21,WSW,239,0.0,0.0,25,0.00,,,0.00,VWS V14.01,2013-01-15 00:50:00,
2013-01-14 18:55:00,17.8,-12.1,29.21,WSW,239,0.0,0.0,25,0.00,,,0.00,VWS V14.01,2013-01-15 00:55:00,
2013-01-14 19:00:00,17.8,-12.1,29.21,WSW,239,0.0,0.0,25,0.00,,,0.00,VWS V14.01,2013-01-15 01:00:00,
2013-01-14 19:05:00,17.2,-11.8,29.21,WSW,239,0.0,0.0,26,0.00,,,0.00,VWS V14.01,2013-01-15 01:05:00,
2013-01-14 19:10:00,16.7,-12.2,29.21,WSW,239,0.0,0.0,26,0.00,,,0.00,VWS V14.01,2013-01-15 01:10:00,
2013-01-14 19:15:00,16.5,-12.4,29.21,WSW,239,0.0,0.0,26,0.00,,,0.00,VWS V14.01,2013-01-15 01:15:00,
2013-01-14 19:20:00,16.5,-12.4,29.21,WSW,239,0.0,0.0,26,0.00,,,0.00,VWS V14.01,2013-01-15 01:20:00,
2013-01-14 19:25:00,16.5,-12.4,29.21,WSW,239,0.0,0.0,26,0.00,,,0.00,VWS V14.01,2013-01-15 01:25:00,
2013-01-14 19:30:00,16.5,-10.9,29.21,WSW,239,0.0,0.0,28,0.00,,,0.00,VWS V14.01,2013-01-15 01:30:00,
2013-01-14 19:35:00,16.5,-10.9,29.21,WSW,239,0.0,0.0,28,0.00,,,0.00,VWS V14.01,2013-01-15 01:35:00,
2013-01-14 19:40:00,16.0,-12.8,29.21,WSW,239,0.0,0.0,26,0.00,,,0.00,VWS V14.01,2013-01-15 01:40:00,
2013-01-14 19:44:00,16.0,-12.8,29.21,WSW,239,0.0,0.0,26,0.00,,,0.00,VWS V14.01,2013-01-15 01:44:00,
2013-01-14 19:49:00,15.4,-11.1,29.21,WSW,239,0.0,0.0,29,0.00,,,0.00,VWS V14.01,2013-01-15 01:49:00,
2013-01-14 19:54:00,15.3,-11.3,29.21,WSW,239,0.0,0.0,29,0.00,,,0.00,VWS V14.01,2013-01-15 01:54:00,
2013-01-14 19:59:00,15.1,-11.4,29.21,WSW,239,0.0,0.0,29,0.00,,,0.00,VWS V14.01,2013-01-15 01:59:00,
2013-01-14 20:04:00,14.9,-11.6,29.21,WSW,239,0.0,0.0,29,0.00,,,0.00,VWS V14.01,2013-01-15 02:04:00,
2013-01-14 20:09:00,14.9,-11.6,29.21,WSW,239,0.0,0.0,29,0.00,,,0.00,VWS V14.01,2013-01-15 02:09:00,
2013-01-14 20:14:00,14.9,-11.6,29.21,WSW,239,0.0,0.0,29,0.00,,,0.00,VWS V14.01,2013-01-15 02:14:00,
2013-01-14 20:19:00,14.4,-10.7,29.21,WSW,239,0.0,0.0,31,0.00,,,0.00,VWS V14.01,2013-01-15 02:19:00,
2013-01-14 20:24:00,14.2,-10.9,29.21,WSW,239,0.0,0.0,31,0.00,,,0.00,VWS V14.01,2013-01-15 02:24:00,
2013-01-14 20:29:00,14.2,-10.9,29.21,WSW,239,0.0,0.0,31,0.00,,,0.00,VWS V14.01,2013-01-15 02:29:00,
2013-01-14 20:34:00,14.2,-9.0,29.21,WSW,239,0.0,0.0,34,0.00,,,0.00,VWS V14.01,2013-01-15 02:34:00,
2013-01-14 20:39:00,14.2,-9.0,29.21,WSW,239,0.0,0.0,34,0.00,,,0.00,VWS V14.01,2013-01-15 02:39:00,
2013-01-14 20:44:00,14.2,-9.0,29.21,WSW,239,0.0,0.0,34,0.00,,,0.00,VWS V14.01,2013-01-15 02:44:00,
2013-01-14 20:49:00,14.4,-8.9,29.21,WSW,239,0.0,0.0,34,0.00,,,0.00,VWS V14.01,2013-01-15 02:49:00,
2013-01-14 20:54:00,14.9,-8.4,29.21,WSW,239,0.0,0.0,34,0.00,,,0.00,VWS V14.01,2013-01-15 02:54:00,
2013-01-14 20:59:00,14.9,-7.8,29.21,WSW,239,0.0,0.0,35,0.00,,,0.00,VWS V14.01,2013-01-15 02:59:00,
2013-01-14 21:04:00,15.1,-7.6,29.21,WSW,239,0.0,0.0,35,0.00,,,0.00,VWS V14.01,2013-01-15 03:04:00,
2013-01-14 21:09:00,15.1,-7.6,29.21,WSW,239,0.0,0.0,35,0.00,,,0.00,VWS V14.01,2013-01-15 03:09:00,
2013-01-14 21:14:00,15.1,-7.6,29.21,WSW,239,0.0,0.0,35,0.00,,,0.00,VWS V14.01,2013-01-15 03:14:00,
2013-01-14 21:19:00,15.1,-7.6,29.21,WSW,239,0.0,0.0,35,0.00,,,0.00,VWS V14.01,2013-01-15 03:19:00,
2013-01-14 21:24:00,15.1,-7.6,29.21,WSW,239,0.0,0.0,35,0.00,,,0.00,VWS V14.01,2013-01-15 03:24:00,
2013-01-14 21:29:00,15.1,-7.6,29.21,WSW,239,0.0,0.0,35,0.00,,,0.00,VWS V14.01,2013-01-15 03:29:00,
2013-01-14 21:34:00,14.9,-7.8,29.21,WSW,239,0.0,0.0,35,0.00,,,0.00,VWS V14.01,2013-01-15 03:34:00,
2013-01-14 21:39:00,14.9,-7.8,29.21,WSW,239,0.0,0.0,35,0.00,,,0.00,VWS V14.01,2013-01-15 03:39:00,
2013-01-14 21:44:00,14.9,-7.8,29.21,WSW,239,0.0,0.0,35,0.00,,,0.00,VWS V14.01,2013-01-15 03:44:00,
2013-01-14 21:49:00,15.3,-7.5,29.21,WSW,239,0.0,0.0,35,0.00,,,0.00,VWS V14.01,2013-01-15 03:49:00,
2013-01-14 21:54:00,15.3,-7.5,29.21,WSW,239,0.0,0.0,35,0.00,,,0.00,VWS V14.01,2013-01-15 03:54:00,
2013-01-14 21:59:00,15.4,-6.7,29.21,WSW,239,0.0,0.0,36,0.00,,,0.00,VWS V14.01,2013-01-15 03:59:00,
2013-01-14 22:04:00,15.4,-6.7,29.21,WSW,239,0.0,0.0,36,0.00,,,0.00,VWS V14.01,2013-01-15 04:04:00,
2013-01-14 22:09:00,15.4,-6.7,29.21,WSW,239,0.0,0.0,36,0.00,,,0.00,VWS V14.01,2013-01-15 04:09:00,
2013-01-14 22:29:00,15.1,-7.6,29.21,WSW,239,0.0,0.0,35,0.00,,,0.00,VWS V14.01,2013-01-15 04:29:00,
2013-01-14 22:34:00,14.9,-7.2,29.21,SW,216,2.7,2.7,36,0.00,,,0.00,VWS V14.01,2013-01-15 04:34:00,
2013-01-14 22:39:00,14.7,-8.0,29.21,SSW,209,3.1,3.1,35,0.00,,,0.00,VWS V14.01,2013-01-15 04:39:00,
2013-01-14 22:44:00,14.7,-8.0,29.21,SSW,208,2.7,2.7,35,0.00,,,0.00,VWS V14.01,2013-01-15 04:44:00,
2013-01-14 22:49:00,14.5,-8.1,29.21,SSW,208,3.1,3.1,35,0.00,,,0.00,VWS V14.01,2013-01-15 04:49:00,
2013-01-14 22:54:00,14.9,-7.2,29.21,SSW,208,0.0,0.0,36,0.00,,,0.00,VWS V14.01,2013-01-15 04:54:00,
2013-01-14 22:59:00,14.9,-7.2,29.21,SSW,208,0.0,0.0,36,0.00,,,0.00,VWS V14.01,2013-01-15 04:59:00,
2013-01-14 23:00:00,14.7,-8.0,29.21,SSW,208,0.0,0.0,35,0.00,,,0.00,VWS V14.01,2013-01-15 05:00:00,
2013-01-14 23:01:00,14.5,-8.1,29.21,SSW,208,0.0,0.0,35,0.00,,,0.00,VWS V14.01,2013-01-15 05:01:00,
2013-01-14 23:06:00,14.5,-8.1,29.21,SSW,208,0.0,0.0,35,0.00,,,0.00,VWS V14.01,2013-01-15 05:06:00,
2013-01-14 23:11:00,14.5,-8.1,29.21,SSW,208,0.0,0.0,35,0.00,,,0.00,VWS V14.01,2013-01-15 05:11:00,
2013-01-14 23:16:00,14.2,-8.4,29.21,SSW,208,0.0,0.0,35,0.00,,,0.00,VWS V14.01,2013-01-15 05:16:00,
2013-01-14 23:21:00,13.5,-9.1,29.21,SSW,208,0.0,0.0,35,0.00,,,0.00,VWS V14.01,2013-01-15 05:21:00,
2013-01-14 23:26:00,13.5,-9.1,29.21,SSW,207,0.0,0.0,35,0.00,,,0.00,VWS V14.01,2013-01-15 05:26:00,
2013-01-14 23:31:00,13.3,-9.2,29.21,SSW,207,0.0,0.0,35,0.00,,,0.00,VWS V14.01,2013-01-15 05:31:00,
2013-01-14 23:36:00,13.1,-9.4,29.21,SSW,207,0.0,0.0,35,0.00,,,0.00,VWS V14.01,2013-01-15 05:36:00,
2013-01-14 23:41:00,12.9,-9.6,29.18,SSW,207,0.0,0.0,35,0.00,,,0.00,VWS V14.01,2013-01-15 05:41:00,
2013-01-14 23:46:00,12.7,-9.7,29.18,SSW,204,0.0,0.0,35,0.00,,,0.00,VWS V14.01,2013-01-15 05:46:00,
2013-01-14 23:51:00,12.7,-9.7,29.18,SSW,204,0.0,0.0,35,0.00,,,0.00,VWS V14.01,2013-01-15 05:51:00,
2013-01-14 23:56:00,12.7,-9.7,29.21,SSW,204,0.0,0.0,35,0.00,,,0.00,VWS V14.01,2013-01-15 05:56:00,